Terminal Aerodrome Forecast
Issued by NWS

Home | Current Version | Previous Version | Graphics & Text | Print | Product List | Glossary On
Versions: 1 2 3 4 5 6 7 8 9 10 11 12 13
000
FTUS43 KICT 301730
TAFCNU
TAF
KCNU 301730Z 3018/3118 15006KT P6SM BKN150
     FM310000 15006KT P6SM OVC090
     FM311100 15007KT P6SM -RA SCT015 OVC030=

USA.gov is the U.S. government's official web portal to all federal, state and local government web resources and services.